Aviation Digital Data Service (ADDS)

Output produced by TAFs form (0440 UTC 10 February 2016)
found at http://aviationweather.gov/adds/tafs/
 
KFMN 092327Z 1000/1024 29005KT P6SM SKC 
     FM100100 VRB05KT P6SM SKC 
     FM100700 07006KT P6SM SKC 
     FM102100 26006KT P6SM SKC